Time;durP1;ratioP1;P1;durP2;ratioP2;P2;SDS_P1;SDS_P2;PMS_P1;PMS_P2;Temp;Humidity;BMP_temperature;BMP_pressure;BME280_temperature;BME280_humidity;BME280_pressure;Samples;Min_cycle;Max_cycle;Signal;HPM_P1;HPM_P2
2023/12/28 00:00:38;;;;;;;1.83;0.90;;;20.30;39.90;;;;;;4965657;28;20031;-60
2023/12/28 00:03:04;;;;;;;1.70;0.80;;;20.30;39.90;;;;;;4969464;28;20050;-60
2023/12/28 00:05:30;;;;;;;2.58;1.02;;;20.30;39.90;;;;;;4969615;28;20035;-61
2023/12/28 00:07:57;;;;;;;2.17;0.82;;;20.30;40.00;;;;;;4967477;28;20376;-62
2023/12/28 00:10:27;;;;;;;1.65;0.82;;;20.30;40.00;;;;;;4969806;28;20513;-60
2023/12/28 00:12:54;;;;;;;0.95;0.75;;;20.30;40.00;;;;;;4963611;28;20027;-60
2023/12/28 00:15:20;;;;;;;1.05;0.73;;;20.30;40.00;;;;;;4969489;28;20023;-59
2023/12/28 00:17:45;;;;;;;1.77;0.70;;;20.30;40.10;;;;;;4963982;28;20054;-60
2023/12/28 00:20:12;;;;;;;0.90;0.70;;;20.30;40.10;;;;;;4962717;28;20038;-60
2023/12/28 00:22:37;;;;;;;1.45;0.80;;;20.30;40.10;;;;;;4965522;28;20455;-60
2023/12/28 00:25:04;;;;;;;1.33;0.90;;;20.30;40.20;;;;;;4964150;28;20043;-60
2023/12/28 00:27:30;;;;;;;1.10;0.70;;;20.30;40.20;;;;;;4962242;28;20141;-61
2023/12/28 00:29:57;;;;;;;1.08;0.63;;;20.30;40.30;;;;;;4963537;28;20034;-60
2023/12/28 00:32:23;;;;;;;1.48;0.70;;;20.30;40.30;;;;;;4966010;28;20031;-61
2023/12/28 00:34:49;;;;;;;0.70;0.47;;;20.20;40.30;;;;;;4965002;28;20113;-60
2023/12/28 00:37:15;;;;;;;1.17;0.70;;;20.30;40.40;;;;;;4960220;28;20063;-60
2023/12/28 00:39:41;;;;;;;0.80;0.70;;;20.20;40.40;;;;;;4964366;28;20034;-59
2023/12/28 00:42:07;;;;;;;0.75;0.50;;;20.20;40.40;;;;;;4961295;28;20122;-60
2023/12/28 00:44:32;;;;;;;1.17;0.68;;;20.20;40.50;;;;;;4962780;28;20348;-60
2023/12/28 00:46:58;;;;;;;1.23;0.70;;;20.20;40.50;;;;;;4961936;28;20374;-61
2023/12/28 00:49:24;;;;;;;1.40;0.80;;;20.20;40.50;;;;;;4962815;28;20086;-61
2023/12/28 00:51:50;;;;;;;1.80;0.85;;;20.20;40.60;;;;;;4965403;28;20551;-60
2023/12/28 00:54:15;;;;;;;1.63;0.63;;;20.20;40.60;;;;;;4963549;28;20537;-61
2023/12/28 00:56:41;;;;;;;0.65;0.50;;;20.20;40.70;;;;;;4959907;28;20392;-60
2023/12/28 00:59:07;;;;;;;1.08;0.60;;;20.20;40.70;;;;;;4966259;28;20029;-60
2023/12/28 01:01:33;;;;;;;0.70;0.63;;;20.10;40.80;;;;;;4965663;28;20034;-60
2023/12/28 01:03:58;;;;;;;0.90;0.50;;;20.10;40.80;;;;;;4961146;28;20446;-61
2023/12/28 01:06:28;;;;;;;1.15;0.80;;;20.20;40.90;;;;;;4959276;28;20047;-60
2023/12/28 01:08:55;;;;;;;1.83;0.80;;;20.20;40.90;;;;;;4965183;28;20030;-60
2023/12/28 01:11:21;;;;;;;0.85;0.63;;;20.10;40.90;;;;;;4963542;28;20106;-62
2023/12/28 01:13:46;;;;;;;1.73;0.60;;;20.10;41.00;;;;;;4963698;28;20447;-61
2023/12/28 01:16:13;;;;;;;0.65;0.55;;;20.10;41.00;;;;;;4960430;28;20049;-60
2023/12/28 01:18:39;;;;;;;1.38;0.73;;;20.10;41.10;;;;;;4966763;28;20075;-61
2023/12/28 01:21:05;;;;;;;1.40;0.70;;;20.10;41.10;;;;;;4964436;28;20050;-60
2023/12/28 01:23:32;;;;;;;0.88;0.60;;;20.10;41.10;;;;;;4927045;28;1183691;-60
2023/12/28 01:25:59;;;;;;;1.10;0.60;;;20.10;41.20;;;;;;4965786;28;20031;-60
2023/12/28 01:28:24;;;;;;;1.13;0.50;;;20.10;41.20;;;;;;4966225;28;20030;-61
2023/12/28 01:30:50;;;;;;;1.15;0.60;;;20.10;41.20;;;;;;4962350;28;20114;-59
2023/12/28 01:33:16;;;;;;;0.70;0.65;;;20.10;41.30;;;;;;4965798;28;20331;-61
2023/12/28 01:35:42;;;;;;;0.90;0.70;;;20.10;41.30;;;;;;4963802;28;20035;-61
2023/12/28 01:38:08;;;;;;;1.42;0.88;;;20.10;41.30;;;;;;4964283;28;20438;-61
2023/12/28 01:40:34;;;;;;;1.42;0.50;;;20.10;41.40;;;;;;4959381;28;20454;-60
2023/12/28 01:43:00;;;;;;;1.15;0.70;;;20.10;41.40;;;;;;4958963;28;20832;-59
2023/12/28 01:45:26;;;;;;;1.02;0.68;;;20.10;41.50;;;;;;4971687;28;20074;-60
2023/12/28 01:47:53;;;;;;;1.00;0.60;;;20.10;41.50;;;;;;4970038;28;20110;-61
2023/12/28 01:50:21;;;;;;;0.88;0.50;;;20.10;41.50;;;;;;4969093;28;20049;-63
2023/12/28 01:52:48;;;;;;;1.08;0.77;;;20.00;41.50;;;;;;4965379;28;20035;-60
2023/12/28 01:55:15;;;;;;;0.88;0.60;;;20.10;41.60;;;;;;4970093;28;20030;-62
2023/12/28 01:57:41;;;;;;;0.85;0.57;;;20.00;41.60;;;;;;4966402;28;20027;-60
2023/12/28 02:00:07;;;;;;;1.23;0.50;;;20.10;41.70;;;;;;4965464;28;20038;-61
2023/12/28 02:02:39;;;;;;;0.85;0.50;;;20.00;41.70;;;;;;4967818;28;20038;-60
2023/12/28 02:05:05;;;;;;;1.00;0.77;;;20.00;41.70;;;;;;4973174;28;20362;-61
2023/12/28 02:07:32;;;;;;;0.95;0.60;;;20.00;41.80;;;;;;4966423;28;20030;-60
2023/12/28 02:09:58;;;;;;;0.82;0.52;;;20.00;41.80;;;;;;4978634;28;20042;-61
2023/12/28 02:12:24;;;;;;;0.77;0.57;;;20.00;41.80;;;;;;4969569;28;20030;-60
2023/12/28 02:14:49;;;;;;;0.50;0.50;;;20.00;41.90;;;;;;4972467;28;20362;-60
2023/12/28 02:17:40;;;;;;;1.27;0.50;;;20.00;41.90;;;;;;4966844;28;20022;-60
2023/12/28 02:20:08;;;;;;;0.63;0.60;;;20.00;41.90;;;;;;4975188;28;20343;-59
2023/12/28 02:22:35;;;;;;;0.95;0.57;;;20.00;41.90;;;;;;4965604;28;20059;-60
2023/12/28 02:25:07;;;;;;;1.13;0.57;;;20.00;42.00;;;;;;4966330;28;20066;-61
2023/12/28 02:27:41;;;;;;;0.93;0.57;;;20.00;42.00;;;;;;4971850;28;20045;-59
2023/12/28 02:30:08;;;;;;;;;;;20.00;42.00;;;;;;4967381;28;20042;-60
2023/12/28 02:32:44;;;;;;;0.90;0.70;;;20.00;42.10;;;;;;4968159;28;19922;-60
2023/12/28 02:35:20;;;;;;;0.82;0.60;;;20.00;42.10;;;;;;4968040;28;20403;-60
2023/12/28 02:37:51;;;;;;;0.50;0.50;;;19.90;42.10;;;;;;4964807;28;20031;-60
2023/12/28 02:40:18;;;;;;;0.95;0.60;;;19.90;42.20;;;;;;4975777;28;20119;-60
2023/12/28 02:42:44;;;;;;;1.23;0.80;;;19.90;42.20;;;;;;4967788;28;20052;-59
2023/12/28 02:45:10;;;;;;;1.00;0.70;;;19.90;42.20;;;;;;4973094;28;20073;-60
2023/12/28 02:47:36;;;;;;;0.73;0.70;;;19.90;42.30;;;;;;4965629;28;20046;-60
2023/12/28 02:50:02;;;;;;;1.63;0.80;;;19.90;42.30;;;;;;4970509;28;20027;-59
2023/12/28 02:52:28;;;;;;;0.90;0.70;;;19.90;42.30;;;;;;4954305;28;20030;-60
2023/12/28 02:54:53;;;;;;;1.77;0.70;;;19.90;42.40;;;;;;4970547;28;20027;-60
2023/12/28 02:57:19;;;;;;;1.77;0.70;;;19.90;42.40;;;;;;4969411;28;20027;-59
2023/12/28 02:59:45;;;;;;;1.50;0.60;;;19.90;42.40;;;;;;4966779;28;20031;-60
2023/12/28 03:02:11;;;;;;;1.33;0.50;;;19.90;42.50;;;;;;4967249;28;20038;-60
2023/12/28 03:04:37;;;;;;;1.23;0.60;;;19.90;42.50;;;;;;4966748;28;20019;-60
2023/12/28 03:07:04;;;;;;;1.92;0.60;;;19.90;42.50;;;;;;4970586;28;20050;-60
2023/12/28 03:09:30;;;;;;;0.90;0.60;;;19.90;42.50;;;;;;4971049;28;20062;-60
2023/12/28 03:11:56;;;;;;;0.93;0.50;;;19.90;42.60;;;;;;4969471;28;20042;-62
2023/12/28 03:14:21;;;;;;;1.05;0.50;;;19.90;42.60;;;;;;4967084;28;20030;-61
2023/12/28 03:16:47;;;;;;;1.25;0.70;;;19.90;42.60;;;;;;4966705;28;20093;-60
2023/12/28 03:19:13;;;;;;;0.70;0.55;;;19.90;42.60;;;;;;4970165;28;20078;-61
2023/12/28 03:21:42;;;;;;;0.88;0.50;;;19.90;42.70;;;;;;4967413;28;20288;-60
2023/12/28 03:24:08;;;;;;;1.33;0.50;;;19.90;42.70;;;;;;4971141;28;20370;-60
2023/12/28 03:26:38;;;;;;;0.88;0.52;;;19.90;42.70;;;;;;4965410;28;20074;-60
2023/12/28 03:29:05;;;;;;;1.27;0.60;;;19.80;42.70;;;;;;4958354;28;20122;-59
2023/12/28 03:31:32;;;;;;;1.85;0.70;;;19.80;42.70;;;;;;4971947;28;20026;-62
2023/12/28 03:33:58;;;;;;;1.65;0.70;;;19.80;42.70;;;;;;4970793;28;20045;-60
2023/12/28 03:36:24;;;;;;;1.13;0.50;;;19.90;42.80;;;;;;4968559;28;20379;-60
2023/12/28 03:38:49;;;;;;;0.98;0.50;;;19.80;42.70;;;;;;4969392;28;20106;-61
2023/12/28 03:41:18;;;;;;;1.45;0.70;;;19.80;42.80;;;;;;4968123;28;20031;-60
2023/12/28 03:43:45;;;;;;;1.10;0.50;;;19.80;42.80;;;;;;4966345;28;20150;-60
2023/12/28 03:46:11;;;;;;;1.27;0.50;;;19.80;42.80;;;;;;4963110;28;20255;-60
2023/12/28 03:48:37;;;;;;;0.40;0.40;;;19.80;42.90;;;;;;4966652;28;20509;-60
2023/12/28 03:51:04;;;;;;;1.33;0.50;;;19.80;42.90;;;;;;4968877;28;20027;-60
2023/12/28 03:53:33;;;;;;;1.15;0.40;;;19.80;42.90;;;;;;4969815;28;20023;-60
2023/12/28 03:56:00;;;;;;;0.95;0.60;;;19.80;42.90;;;;;;4964229;28;20031;-60
2023/12/28 03:58:26;;;;;;;1.30;0.50;;;19.80;42.90;;;;;;4963922;28;20034;-60
2023/12/28 04:00:52;;;;;;;0.90;0.52;;;19.80;43.00;;;;;;4968712;28;20142;-60
2023/12/28 04:03:18;;;;;;;0.95;0.52;;;19.80;43.00;;;;;;4968438;28;20046;-60
2023/12/28 04:05:44;;;;;;;1.55;0.70;;;19.80;43.00;;;;;;4963714;28;20346;-61
2023/12/28 04:08:10;;;;;;;0.63;0.55;;;19.80;43.00;;;;;;4970011;28;20382;-60
2023/12/28 04:10:39;;;;;;;1.40;0.63;;;19.80;43.00;;;;;;4970842;28;20389;-62
2023/12/28 04:13:05;;;;;;;0.75;0.43;;;19.80;43.00;;;;;;4964608;28;20434;-60
2023/12/28 04:15:31;;;;;;;1.00;0.60;;;19.80;43.00;;;;;;4967645;28;20565;-61
2023/12/28 04:17:57;;;;;;;1.00;0.40;;;19.80;43.00;;;;;;4967369;28;20117;-60
2023/12/28 04:20:23;;;;;;;0.65;0.45;;;19.80;43.00;;;;;;4966872;28;20131;-60
2023/12/28 04:22:50;;;;;;;0.63;0.40;;;19.80;43.10;;;;;;4968535;28;20045;-61
2023/12/28 04:25:16;;;;;;;0.98;0.40;;;19.80;43.10;;;;;;4966129;28;20359;-60
2023/12/28 04:27:42;;;;;;;1.17;0.57;;;19.80;43.10;;;;;;4967933;28;20042;-60
2023/12/28 04:30:12;;;;;;;1.80;0.80;;;19.80;43.10;;;;;;4964926;28;20046;-60
2023/12/28 04:32:38;;;;;;;1.02;0.60;;;19.80;43.10;;;;;;4969912;28;20478;-61
2023/12/28 04:35:04;;;;;;;1.58;0.60;;;19.80;43.10;;;;;;4964280;28;20027;-61
2023/12/28 04:37:30;;;;;;;0.82;0.40;;;19.70;43.10;;;;;;4969467;28;20086;-61
2023/12/28 04:39:57;;;;;;;0.95;0.57;;;19.70;43.10;;;;;;4973907;28;20023;-60
2023/12/28 04:42:23;;;;;;;1.15;0.50;;;19.80;43.10;;;;;;4967032;28;20054;-61
2023/12/28 04:44:48;;;;;;;1.25;0.70;;;19.70;43.10;;;;;;4967959;28;20026;-60
2023/12/28 04:47:14;;;;;;;1.25;0.40;;;19.70;43.10;;;;;;4962059;28;20433;-61
2023/12/28 04:49:40;;;;;;;1.60;0.60;;;19.70;43.10;;;;;;4962196;28;20038;-61
2023/12/28 04:52:06;;;;;;;1.25;0.63;;;19.70;43.10;;;;;;4966466;28;20033;-60
2023/12/28 04:54:33;;;;;;;2.58;0.70;;;19.70;43.10;;;;;;4963710;28;20332;-60
2023/12/28 04:56:59;;;;;;;1.10;0.57;;;19.70;43.10;;;;;;4965435;28;21088;-61
2023/12/28 04:59:25;;;;;;;0.95;0.50;;;19.70;43.10;;;;;;4969065;28;20044;-60
2023/12/28 05:01:51;;;;;;;1.02;0.47;;;19.70;43.10;;;;;;4966355;28;20050;-61
2023/12/28 05:04:17;;;;;;;1.88;0.60;;;19.70;43.10;;;;;;4968113;28;20493;-60
2023/12/28 05:06:43;;;;;;;0.98;0.52;;;19.70;43.10;;;;;;4965189;28;20105;-60
2023/12/28 05:09:09;;;;;;;2.80;0.88;;;19.70;43.10;;;;;;4961379;28;20027;-61
2023/12/28 05:11:34;;;;;;;1.88;0.68;;;19.70;43.10;;;;;;4956265;28;20027;-59
2023/12/28 05:14:00;;;;;;;1.10;0.68;;;19.70;43.10;;;;;;4969778;28;20034;-59
2023/12/28 05:16:26;;;;;;;1.17;0.55;;;19.70;43.10;;;;;;4969476;28;20457;-60
2023/12/28 05:18:52;;;;;;;1.17;0.68;;;19.70;43.10;;;;;;4964210;28;20335;-61
2023/12/28 05:21:18;;;;;;;2.08;0.70;;;19.70;43.10;;;;;;4971626;28;20038;-61
2023/12/28 05:23:44;;;;;;;1.13;0.63;;;19.70;43.10;;;;;;4957047;28;20402;-62
2023/12/28 05:26:09;;;;;;;1.33;0.70;;;19.70;43.10;;;;;;4956740;29;20043;-61
2023/12/28 05:28:35;;;;;;;1.45;0.63;;;19.70;43.10;;;;;;4959803;28;20129;-61
2023/12/28 05:31:01;;;;;;;1.77;0.65;;;19.70;43.10;;;;;;4957124;29;20023;-60
2023/12/28 05:33:27;;;;;;;1.40;0.68;;;19.70;43.10;;;;;;4964296;28;20107;-60
2023/12/28 05:35:53;;;;;;;1.75;0.68;;;19.60;43.10;;;;;;4976445;28;20353;-60
2023/12/28 05:38:18;;;;;;;1.50;0.50;;;19.70;43.10;;;;;;4975981;28;20038;-61
2023/12/28 05:40:45;;;;;;;2.78;0.82;;;19.60;43.10;;;;;;4967432;28;20097;-61
2023/12/28 05:43:11;;;;;;;1.48;0.57;;;19.60;43.10;;;;;;4976322;28;20039;-62
2023/12/28 05:45:37;;;;;;;1.35;0.68;;;19.70;43.10;;;;;;4976780;28;20041;-61
2023/12/28 05:48:03;;;;;;;1.10;0.50;;;19.70;43.10;;;;;;4975732;28;20369;-60
2023/12/28 05:50:29;;;;;;;1.23;0.50;;;19.60;43.00;;;;;;4967192;28;20035;-61
2023/12/28 05:52:55;;;;;;;2.05;0.70;;;19.70;43.10;;;;;;4958023;28;20312;-60
2023/12/28 05:55:21;;;;;;;2.20;0.73;;;19.60;43.00;;;;;;4971670;28;20038;-60
2023/12/28 05:57:47;;;;;;;1.77;0.70;;;19.70;43.10;;;;;;4975184;28;20030;-61
2023/12/28 06:00:14;;;;;;;2.40;0.90;;;19.60;43.00;;;;;;4971775;28;20031;-60
2023/12/28 06:02:41;;;;;;;2.83;0.77;;;19.70;43.10;;;;;;4975609;28;20030;-60
2023/12/28 06:05:07;;;;;;;2.15;0.80;;;19.60;43.00;;;;;;4972858;28;20023;-62
2023/12/28 06:07:34;;;;;;;1.23;0.60;;;19.60;43.00;;;;;;4964218;28;20038;-61
2023/12/28 06:10:00;;;;;;;2.58;0.80;;;19.70;43.00;;;;;;4965141;28;20042;-60
2023/12/28 06:12:25;;;;;;;1.15;0.52;;;19.60;43.00;;;;;;4975960;28;20035;-61
2023/12/28 06:14:51;;;;;;;2.30;0.70;;;19.60;43.00;;;;;;4974979;28;20027;-59
2023/12/28 06:17:18;;;;;;;1.35;0.68;;;19.60;43.00;;;;;;4968765;28;20031;-60
2023/12/28 06:19:44;;;;;;;0.85;0.43;;;19.60;42.90;;;;;;4961208;28;20134;-61
2023/12/28 06:22:10;;;;;;;2.15;0.77;;;19.60;43.00;;;;;;4964954;28;20466;-61
2023/12/28 06:24:40;;;;;;;2.08;0.73;;;19.60;43.00;;;;;;4964742;28;20051;-60
2023/12/28 06:27:06;;;;;;;2.45;0.98;;;19.60;43.60;;;;;;4956544;28;20443;-59
2023/12/28 06:29:32;;;;;;;2.40;0.60;;;19.60;43.00;;;;;;4967242;28;20035;-61
2023/12/28 06:31:57;;;;;;;1.73;0.70;;;19.60;43.00;;;;;;4961442;28;20031;-60
2023/12/28 06:34:23;;;;;;;2.22;0.88;;;19.60;43.00;;;;;;4979400;28;20042;-59
2023/12/28 06:36:49;;;;;;;2.83;1.00;;;19.60;43.00;;;;;;4962854;28;20111;-60
2023/12/28 06:39:15;;;;;;;2.35;0.50;;;19.60;43.00;;;;;;4962222;28;20187;-58
2023/12/28 06:41:41;;;;;;;2.03;0.90;;;19.60;43.60;;;;;;4967368;28;20070;-61
2023/12/28 06:44:07;;;;;;;2.65;0.80;;;19.60;43.00;;;;;;4959855;29;20039;-60
2023/12/28 06:46:32;;;;;;;2.83;0.77;;;19.60;43.00;;;;;;4966166;28;20053;-61
2023/12/28 06:48:58;;;;;;;2.47;0.70;;;19.60;43.00;;;;;;4959578;28;20035;-60
2023/12/28 06:51:25;;;;;;;1.45;0.60;;;19.60;43.00;;;;;;4981855;28;20480;-62
2023/12/28 06:53:51;;;;;;;2.67;0.88;;;19.60;43.00;;;;;;4968920;28;20031;-60
2023/12/28 06:56:17;;;;;;;2.22;0.82;;;19.60;43.00;;;;;;4968950;28;20427;-61
2023/12/28 06:58:43;;;;;;;2.80;1.15;;;19.60;43.00;;;;;;4959507;28;20047;-60
2023/12/28 07:01:08;;;;;;;2.50;0.77;;;19.60;43.00;;;;;;4959382;28;20439;-60
2023/12/28 07:03:35;;;;;;;1.40;0.60;;;19.50;42.90;;;;;;4967986;28;20070;-61
2023/12/28 07:06:01;;;;;;;1.85;0.80;;;19.60;43.00;;;;;;4967945;28;20461;-61
2023/12/28 07:08:27;;;;;;;2.90;1.05;;;19.60;43.00;;;;;;4975428;28;20030;-59
2023/12/28 07:10:52;;;;;;;4.15;1.10;;;19.60;43.00;;;;;;4975776;28;20347;-62
2023/12/28 07:13:18;;;;;;;4.45;1.05;;;19.60;43.00;;;;;;4960805;28;20451;-60
2023/12/28 07:15:44;;;;;;;3.92;1.27;;;19.60;43.00;;;;;;4963754;28;20027;-61
2023/12/28 07:18:10;;;;;;;3.45;1.20;;;19.50;42.90;;;;;;4968000;28;20446;-60
2023/12/28 07:20:35;;;;;;;2.35;1.05;;;19.50;42.90;;;;;;4967846;28;20062;-60
2023/12/28 07:23:01;;;;;;;2.65;0.98;;;19.60;43.00;;;;;;4969098;28;20039;-61
2023/12/28 07:25:27;;;;;;;3.65;1.33;;;19.50;42.90;;;;;;4961868;28;20047;-60
2023/12/28 07:27:53;;;;;;;3.08;0.88;;;19.50;42.90;;;;;;4963034;28;20085;-60
2023/12/28 07:30:18;;;;;;;3.42;1.13;;;19.50;43.00;;;;;;4959127;28;20074;-61
2023/12/28 07:32:47;;;;;;;2.78;1.25;;;19.50;43.00;;;;;;4958670;28;20431;-60
2023/12/28 07:35:13;;;;;;;2.50;1.00;;;19.50;42.90;;;;;;4961187;28;20477;-59
2023/12/28 07:37:39;;;;;;;2.75;0.90;;;19.50;42.90;;;;;;4968010;28;20027;-60
2023/12/28 07:40:05;;;;;;;2.10;0.93;;;19.50;43.00;;;;;;4971893;28;20582;-61
2023/12/28 07:42:31;;;;;;;3.13;1.00;;;19.50;43.00;;;;;;4964849;28;20054;-63
2023/12/28 07:44:57;;;;;;;2.75;1.20;;;19.50;43.00;;;;;;4977960;28;20054;-62
2023/12/28 07:47:23;;;;;;;2.72;1.20;;;19.50;43.00;;;;;;4960109;28;20049;-61
2023/12/28 07:49:49;;;;;;;4.63;1.35;;;19.50;43.00;;;;;;4972719;28;20026;-60
2023/12/28 07:52:15;;;;;;;4.20;1.10;;;19.50;43.00;;;;;;4958488;28;20040;-61
2023/12/28 07:54:40;;;;;;;3.00;1.10;;;19.50;43.10;;;;;;4967791;28;20035;-61
2023/12/28 07:57:06;;;;;;;2.20;1.13;;;19.50;43.10;;;;;;4975916;28;20038;-62
2023/12/28 07:59:32;;;;;;;2.55;1.05;;;19.50;43.10;;;;;;4961754;28;20038;-61
2023/12/28 08:01:58;;;;;;;5.28;1.20;;;19.50;43.10;;;;;;4958552;29;20031;-61
2023/12/28 08:04:23;;;;;;;2.88;1.13;;;19.50;43.10;;;;;;4958363;29;20324;-61
2023/12/28 08:06:49;;;;;;;4.00;1.50;;;19.50;43.10;;;;;;4970661;28;20343;-61
2023/12/28 08:09:15;;;;;;;2.92;1.20;;;19.50;43.00;;;;;;4965028;28;20027;-60
2023/12/28 08:11:41;;;;;;;2.63;1.08;;;19.60;43.10;;;;;;4958102;29;20100;-61
2023/12/28 08:14:07;;;;;;;3.33;1.17;;;19.60;43.10;;;;;;4958340;28;20027;-62
2023/12/28 08:16:34;;;;;;;4.15;1.40;;;19.50;43.00;;;;;;4963927;28;20041;-61
2023/12/28 08:19:01;;;;;;;2.35;0.93;;;19.60;43.10;;;;;;4970639;28;20113;-61
2023/12/28 08:21:27;;;;;;;3.35;1.20;;;19.50;43.00;;;;;;4961158;28;20515;-61
2023/12/28 08:23:53;;;;;;;3.42;0.98;;;19.50;43.00;;;;;;4957687;29;20121;-61
2023/12/28 08:26:19;;;;;;;3.28;1.23;;;19.60;43.00;;;;;;4958752;28;20031;-61
2023/12/28 08:28:45;;;;;;;2.92;1.17;;;19.60;43.00;;;;;;4958960;28;20035;-61
2023/12/28 08:31:11;;;;;;;3.28;1.15;;;19.60;43.00;;;;;;4956877;29;20057;-62
2023/12/28 08:33:39;;;;;;;5.38;1.20;;;19.60;43.00;;;;;;4969496;28;20074;-62
2023/12/28 08:36:09;;;;;;;3.25;1.50;;;19.60;43.00;;;;;;4961294;28;20477;-62
2023/12/28 08:38:35;;;;;;;3.13;1.10;;;19.60;43.70;;;;;;4964894;28;20034;-61
2023/12/28 08:41:03;;;;;;;4.47;1.25;;;19.60;43.00;;;;;;4958242;29;20061;-61
2023/12/28 08:43:29;;;;;;;2.88;1.15;;;19.60;43.10;;;;;;4958079;28;20035;-61
2023/12/28 08:45:55;;;;;;;4.70;1.38;;;19.60;43.10;;;;;;4973740;28;20174;-61
2023/12/28 08:48:21;;;;;;;4.07;1.23;;;19.60;43.10;;;;;;4976663;28;20117;-62
2023/12/28 08:50:48;;;;;;;3.30;1.00;;;19.50;43.00;;;;;;4970256;28;20407;-62
2023/12/28 08:53:14;;;;;;;2.38;1.17;;;19.60;43.10;;;;;;4962044;28;20141;-61
2023/12/28 08:55:40;;;;;;;3.63;1.23;;;19.60;43.10;;;;;;4966894;28;20027;-61
2023/12/28 08:58:06;;;;;;;4.50;1.40;;;19.60;43.10;;;;;;4967732;28;20363;-63
2023/12/28 09:00:31;;;;;;;3.03;1.10;;;19.60;43.10;;;;;;4962292;28;20031;-61
2023/12/28 09:02:57;;;;;;;3.45;1.33;;;19.60;43.10;;;;;;4973767;28;20027;-61
2023/12/28 09:05:23;;;;;;;2.90;1.20;;;19.60;43.10;;;;;;4969530;28;20022;-61
2023/12/28 09:07:49;;;;;;;2.55;1.02;;;19.60;43.10;;;;;;4978184;28;20046;-61
2023/12/28 09:10:15;;;;;;;3.90;1.20;;;19.60;43.00;;;;;;4963486;28;20039;-61
2023/12/28 09:12:41;;;;;;;3.92;1.08;;;19.60;43.00;;;;;;4968910;28;20114;-60
2023/12/28 09:15:07;;;;;;;2.13;1.10;;;19.60;43.00;;;;;;4963244;28;20027;-59
2023/12/28 09:17:34;;;;;;;3.83;1.08;;;19.60;43.00;;;;;;4963300;28;20061;-58
2023/12/28 09:20:01;;;;;;;3.83;1.67;;;19.60;43.00;;;;;;4963068;28;20561;-60
2023/12/28 09:22:27;;;;;;;6.18;1.38;;;19.60;43.00;;;;;;4966885;28;20059;-58
2023/12/28 09:24:53;;;;;;;3.75;0.90;;;19.60;43.00;;;;;;4967699;28;20042;-59
2023/12/28 09:27:19;;;;;;;2.45;0.80;;;19.60;43.00;;;;;;4966335;28;20039;-60
2023/12/28 09:29:45;;;;;;;2.35;0.90;;;19.60;43.00;;;;;;4971290;28;20027;-60
2023/12/28 09:32:11;;;;;;;3.60;1.27;;;19.60;43.00;;;;;;4971508;28;20046;-61
2023/12/28 09:34:37;;;;;;;2.53;1.00;;;19.60;43.00;;;;;;4970460;28;20327;-59
2023/12/28 09:37:03;;;;;;;3.78;1.23;;;19.60;43.00;;;;;;4971155;28;20027;-61
2023/12/28 09:39:28;;;;;;;2.53;1.00;;;19.60;42.90;;;;;;4968689;28;20055;-61
2023/12/28 09:42:04;;;;;;;4.18;1.13;;;19.60;42.90;;;;;;4967988;28;20118;-60
2023/12/28 09:44:31;;;;;;;3.08;1.35;;;19.60;42.90;;;;;;4962945;28;20373;-61
2023/12/28 09:46:57;;;;;;;4.13;1.08;;;19.60;42.90;;;;;;4973075;28;20039;-60
2023/12/28 09:49:23;;;;;;;3.95;1.35;;;19.60;42.90;;;;;;4976051;28;20074;-59
2023/12/28 09:51:49;;;;;;;4.07;1.00;;;19.60;42.90;;;;;;4976071;28;20405;-60
2023/12/28 09:54:17;;;;;;;2.50;1.17;;;19.60;42.90;;;;;;4976343;28;20109;-61
2023/12/28 09:56:43;;;;;;;4.45;1.35;;;19.60;42.90;;;;;;4972115;28;20335;-61
2023/12/28 09:59:09;;;;;;;3.15;1.00;;;19.60;42.90;;;;;;4972383;28;20097;-62
2023/12/28 10:01:36;;;;;;;2.65;1.10;;;19.60;42.90;;;;;;4965515;28;20101;-61
2023/12/28 10:04:05;;;;;;;3.00;1.00;;;19.60;42.90;;;;;;4965745;28;20031;-63
2023/12/28 10:06:30;;;;;;;2.63;0.82;;;19.70;42.80;;;;;;4977870;28;20047;-62
2023/12/28 10:08:56;;;;;;;2.28;0.80;;;19.70;42.80;;;;;;4972627;28;20046;-61
2023/12/28 10:11:23;;;;;;;2.55;0.90;;;19.70;42.70;;;;;;4971939;28;20079;-62
2023/12/28 10:13:49;;;;;;;5.07;1.63;;;19.80;42.70;;;;;;4966446;28;20035;-61
2023/12/28 10:16:16;;;;;;;2.35;0.88;;;19.90;42.70;;;;;;4964807;28;20031;-60
2023/12/28 10:18:45;;;;;;;2.65;1.08;;;20.00;42.60;;;;;;4969951;28;20109;-62
2023/12/28 10:21:11;;;;;;;3.63;1.23;;;20.00;42.50;;;;;;4972695;28;20441;-62
2023/12/28 10:23:41;;;;;;;3.65;1.10;;;20.10;42.50;;;;;;4963631;28;20051;-61
2023/12/28 10:26:07;;;;;;;2.88;1.10;;;20.10;42.30;;;;;;4973446;28;20039;-61
2023/12/28 10:28:38;;;;;;;3.58;1.23;;;20.20;42.30;;;;;;4968771;28;20027;-61
2023/12/28 10:31:04;;;;;;;4.68;1.27;;;20.30;42.20;;;;;;4975884;28;20033;-61
2023/12/28 10:33:37;;;;;;;3.35;1.40;;;20.40;42.80;;;;;;4968686;28;20061;-62
2023/12/28 10:36:06;;;;;;;3.70;1.15;;;20.50;42.10;;;;;;4960857;28;20434;-63
2023/12/28 10:38:36;;;;;;;2.85;1.00;;;20.50;42.00;;;;;;4967148;28;20381;-62
2023/12/28 10:41:08;;;;;;;3.40;1.13;;;20.60;41.90;;;;;;4959714;28;20115;-61
2023/12/28 10:43:45;;;;;;;2.70;1.00;;;20.70;41.80;;;;;;4966098;28;20042;-61
2023/12/28 10:46:25;;;;;;;2.85;1.05;;;20.80;41.80;;;;;;4974192;28;20034;-62
2023/12/28 10:48:57;;;;;;;2.38;1.00;;;20.80;41.60;;;;;;4966033;28;20370;-63
2023/12/28 10:51:27;;;;;;;2.88;1.20;;;20.90;41.60;;;;;;4969504;28;20468;-60
2023/12/28 10:54:02;;;;;;;3.70;1.13;;;21.00;41.50;;;;;;4973024;28;20022;-61
2023/12/28 10:56:37;;;;;;;2.15;0.80;;;21.10;41.50;;;;;;4960424;28;20105;-61
2023/12/28 10:59:20;;;;;;;3.10;1.10;;;21.10;41.40;;;;;;4963976;28;20119;-60
2023/12/28 11:01:48;;;;;;;3.60;0.90;;;21.20;41.40;;;;;;4968334;28;20042;-60
2023/12/28 11:04:23;;;;;;;2.67;0.93;;;21.20;41.30;;;;;;4966725;28;20031;-59
2023/12/28 11:06:52;;;;;;;4.53;0.90;;;21.30;41.30;;;;;;4966753;28;20095;-60
2023/12/28 11:09:20;;;;;;;2.35;0.77;;;21.30;41.20;;;;;;4963206;28;20415;-60
2023/12/28 11:11:46;;;;;;;2.60;0.93;;;21.30;41.10;;;;;;4971165;28;20054;-60
2023/12/28 11:14:14;;;;;;;1.88;0.95;;;21.40;41.10;;;;;;4964588;28;20490;-60
2023/12/28 11:16:41;;;;;;;3.58;1.15;;;21.40;41.00;;;;;;4969443;28;20086;-59
2023/12/28 11:19:10;;;;;;;3.95;1.40;;;21.40;40.90;;;;;;4965014;28;20414;-59
2023/12/28 11:21:37;;;;;;;2.10;0.98;;;21.50;40.90;;;;;;4972581;28;20701;-60
2023/12/28 11:24:03;;;;;;;3.33;1.08;;;21.50;40.90;;;;;;4968586;28;20466;-61
2023/12/28 11:26:29;;;;;;;2.17;0.90;;;21.50;40.90;;;;;;4967783;28;20034;-57
2023/12/28 11:29:04;;;;;;;4.43;1.20;;;21.50;40.90;;;;;;4967850;28;20074;-59
2023/12/28 11:31:37;;;;;;;3.03;0.95;;;21.50;40.70;;;;;;4965617;28;20078;-58
2023/12/28 11:34:05;;;;;;;3.08;1.00;;;21.50;40.80;;;;;;4975248;28;20121;-62
2023/12/28 11:36:40;;;;;;;1.83;1.00;;;21.50;40.70;;;;;;4959653;28;20481;-60
2023/12/28 11:39:06;;;;;;;1.67;0.80;;;21.50;40.70;;;;;;4964680;28;20115;-59
2023/12/28 11:41:38;;;;;;;3.30;0.95;;;21.50;40.70;;;;;;4965848;28;20390;-59
2023/12/28 11:44:05;;;;;;;4.63;1.17;;;21.50;40.60;;;;;;4958370;28;20473;-60
2023/12/28 11:46:36;;;;;;;2.53;1.15;;;21.50;40.60;;;;;;4965328;28;20042;-59
2023/12/28 11:49:06;;;;;;;3.92;1.40;;;21.50;40.60;;;;;;4973237;28;20035;-60
2023/12/28 11:51:38;;;;;;;2.20;0.90;;;21.50;40.50;;;;;;4968208;28;20073;-60
2023/12/28 11:54:04;;;;;;;4.15;1.40;;;21.50;40.50;;;;;;4966709;28;20113;-63
2023/12/28 11:56:30;;;;;;;3.00;1.02;;;21.50;40.40;;;;;;4969777;28;20023;-59
2023/12/28 11:58:58;;;;;;;2.72;1.15;;;21.50;40.50;;;;;;4964053;28;20023;-59
2023/12/28 12:01:24;;;;;;;2.75;1.00;;;21.50;40.50;;;;;;4965679;28;20059;-60
2023/12/28 12:03:50;;;;;;;3.28;1.17;;;21.50;40.50;;;;;;4976205;28;20399;-60
2023/12/28 12:06:16;;;;;;;3.60;1.15;;;21.50;40.50;;;;;;4967248;28;20070;-60
2023/12/28 12:08:46;;;;;;;3.15;0.90;;;21.40;40.40;;;;;;4974290;28;20043;-57
2023/12/28 12:11:12;;;;;;;2.45;1.00;;;21.40;40.40;;;;;;4966528;28;20066;-59
2023/12/28 12:13:39;;;;;;;1.77;0.73;;;21.40;40.40;;;;;;4971333;28;20026;-61
2023/12/28 12:16:05;;;;;;;3.40;0.80;;;21.40;40.50;;;;;;4958258;29;20031;-58
2023/12/28 12:18:35;;;;;;;4.43;1.10;;;21.40;40.50;;;;;;4977719;28;20403;-60
2023/12/28 12:21:02;;;;;;;3.50;1.15;;;21.40;40.50;;;;;;4976689;28;20531;-58
2023/12/28 12:23:28;;;;;;;3.55;1.20;;;21.40;40.50;;;;;;4967823;28;20045;-57
2023/12/28 12:25:55;;;;;;;2.25;0.77;;;21.30;40.50;;;;;;4968526;28;20420;-58
2023/12/28 12:28:21;;;;;;;3.80;1.10;;;21.30;40.60;;;;;;4961125;28;20058;-60
2023/12/28 12:30:56;;;;;;;2.47;0.80;;;21.30;40.70;;;;;;4965223;28;20069;-60
2023/12/28 12:33:24;;;;;;;4.10;1.17;;;21.30;40.60;;;;;;4963713;28;20034;-58
2023/12/28 12:35:50;;;;;;;1.60;0.80;;;21.30;40.60;;;;;;4958280;28;20336;-60
2023/12/28 12:38:17;;;;;;;3.45;0.93;;;21.30;40.60;;;;;;4957308;28;20118;-56
2023/12/28 12:40:43;;;;;;;2.90;1.10;;;21.20;40.60;;;;;;4970256;28;20031;-56
2023/12/28 12:43:09;;;;;;;1.95;0.80;;;21.20;41.30;;;;;;4954335;28;20030;-54
2023/12/28 12:45:39;;;;;;;4.15;1.15;;;21.20;40.70;;;;;;4967183;28;20033;-58